createdAt,value
2022-11-24T00:01:59.123Z,100017.55
2022-11-24T00:04:31.284Z,100016.25
2022-11-24T00:07:03.389Z,100013.95
2022-11-24T00:09:35.130Z,100015.26
2022-11-24T00:12:07.611Z,100014.39
2022-11-24T00:14:39.380Z,100012.59
2022-11-24T00:17:25.159Z,100012.55
2022-11-24T00:19:57.006Z,100011.83
2022-11-24T00:22:28.792Z,100012.66
2022-11-24T00:25:00.616Z,100015.56
2022-11-24T00:27:57.842Z,100017.58
2022-11-24T00:30:46.628Z,100028.48
2022-11-24T00:33:18.421Z,100039.55
2022-11-24T00:35:57.308Z,100039.63
2022-11-24T00:38:29.143Z,100044.01
2022-11-24T00:41:00.946Z,100046.05
2022-11-24T00:43:32.786Z,100053.88
2022-11-24T00:46:04.876Z,100051.20
2022-11-24T00:48:36.728Z,100051.27
2022-11-24T00:51:11.007Z,100048.91
2022-11-24T00:53:43.154Z,100048.34
2022-11-24T00:56:15.642Z,100054.77
2022-11-24T00:58:47.733Z,100054.10
2022-11-24T01:01:21.659Z,100055.56
2022-11-24T01:03:54.695Z,100057.93
2022-11-24T01:06:27.691Z,100059.56
2022-11-24T01:09:00.276Z,100061.98
2022-11-24T01:11:55.434Z,100063.77
2022-11-24T01:14:27.754Z,100066.14
2022-11-24T01:16:59.579Z,100066.21
2022-11-24T01:19:31.292Z,100067.18
2022-11-24T01:22:03.108Z,100059.06
2022-11-24T01:24:35.075Z,100053.71
2022-11-24T01:27:07.100Z,100049.84
2022-11-24T01:29:38.869Z,100049.34
2022-11-24T01:32:10.750Z,100053.37
2022-11-24T01:34:42.738Z,100057.98
2022-11-24T01:37:14.623Z,100058.45
2022-11-24T01:39:46.553Z,100055.30
2022-11-24T01:42:18.434Z,100057.26
2022-11-24T01:44:53.284Z,100058.61
2022-11-24T01:47:34.661Z,100067.45
2022-11-24T01:50:12.487Z,100077.48
2022-11-24T01:52:47.721Z,100080.58
2022-11-24T01:55:22.556Z,100079.36
2022-11-24T01:57:58.754Z,100080.99
2022-11-24T02:00:30.518Z,100080.25
2022-11-24T02:03:02.469Z,100079.42
2022-11-24T02:05:39.983Z,100078.74
2022-11-24T02:08:17.258Z,100080.88
2022-11-24T02:10:49.642Z,100072.38
2022-11-24T02:13:22.789Z,100075.35
2022-11-24T02:15:55.335Z,100073.73
2022-11-24T02:18:27.259Z,100072.46
2022-11-24T02:21:00.572Z,100073.54
2022-11-24T02:23:39.760Z,100079.06
2022-11-24T02:26:18.697Z,100075.22
2022-11-24T02:28:51.418Z,100076.68
2022-11-24T02:31:23.496Z,100072.17
2022-11-24T02:33:56.680Z,100068.91
2022-11-24T02:36:28.534Z,100069.56
2022-11-24T02:39:00.339Z,100075.66
2022-11-24T02:41:32.200Z,100076.75
2022-11-24T02:44:04.444Z,100074.30
2022-11-24T02:46:36.200Z,100075.34
2022-11-24T02:49:08.085Z,100071.98
2022-11-24T02:51:39.853Z,100076.63
2022-11-24T02:54:11.641Z,100077.20
2022-11-24T02:56:43.357Z,100074.55
2022-11-24T02:59:15.122Z,100072.80
2022-11-24T03:01:47.069Z,100067.94
2022-11-24T03:04:18.954Z,100070.15
2022-11-24T03:06:50.782Z,100066.63
2022-11-24T03:09:22.816Z,100062.84
2022-11-24T03:11:54.637Z,100066.33
2022-11-24T03:14:26.511Z,100064.46
2022-11-24T03:16:58.525Z,100066.44
2022-11-24T03:19:30.368Z,100069.36
2022-11-24T03:22:02.520Z,100068.83
2022-11-24T03:24:34.595Z,100067.48
2022-11-24T03:27:06.712Z,100065.20
2022-11-24T03:29:38.514Z,100070.08
2022-11-24T03:32:10.259Z,100073.89
2022-11-24T03:34:42.036Z,100075.15
2022-11-24T03:37:13.804Z,100081.20
2022-11-24T03:39:45.577Z,100080.52
2022-11-24T03:42:17.497Z,100080.20
2022-11-24T03:44:49.312Z,100080.60
2022-11-24T03:47:21.084Z,100084.38
2022-11-24T03:49:52.848Z,100085.83
2022-11-24T03:52:26.693Z,100085.17
2022-11-24T03:54:58.450Z,100089.73
2022-11-24T03:57:30.242Z,100091.36
2022-11-24T04:00:02.381Z,100092.33
2022-11-24T04:02:34.158Z,100093.66
2022-11-24T04:05:06.495Z,100094.36
2022-11-24T04:07:38.402Z,100094.15
2022-11-24T04:10:16.316Z,100097.08
2022-11-24T04:12:48.128Z,100101.13
2022-11-24T04:15:21.141Z,100097.05
2022-11-24T04:17:55.724Z,100099.05
2022-11-24T04:20:27.930Z,100100.23
2022-11-24T04:22:59.806Z,100099.00
2022-11-24T04:25:31.778Z,100101.16
2022-11-24T04:28:03.675Z,100102.44
2022-11-24T04:30:36.293Z,100102.08
2022-11-24T04:33:08.057Z,100101.39
2022-11-24T04:35:39.921Z,100096.64
2022-11-24T04:38:11.717Z,100100.31
2022-11-24T04:40:43.566Z,100105.88
2022-11-24T04:43:16.376Z,100110.27
2022-11-24T04:45:48.390Z,100112.27
2022-11-24T04:48:20.216Z,100111.17
2022-11-24T04:50:52.085Z,100111.37
2022-11-24T04:53:24.043Z,100112.88
2022-11-24T04:55:55.854Z,100115.27
2022-11-24T04:58:27.628Z,100111.54
2022-11-24T05:00:59.403Z,100115.81
2022-11-24T05:03:31.725Z,100120.66
2022-11-24T05:06:03.857Z,100124.11
2022-11-24T05:08:35.690Z,100129.39
2022-11-24T05:11:08.849Z,100133.05
2022-11-24T05:13:40.665Z,100135.83
2022-11-24T05:16:12.939Z,100139.87
2022-11-24T05:18:44.734Z,100140.83
2022-11-24T05:21:17.254Z,100147.17
2022-11-24T05:23:49.101Z,100143.77
2022-11-24T05:26:22.676Z,100146.33
2022-11-24T05:28:54.507Z,100147.27
2022-11-24T05:31:26.363Z,100152.20
2022-11-24T05:33:58.124Z,100153.62
2022-11-24T05:36:47.785Z,100150.61
2022-11-24T05:39:19.594Z,100150.86
2022-11-24T05:41:51.424Z,100154.02
2022-11-24T05:44:23.105Z,100156.41
2022-11-24T05:46:55.453Z,100159.09
2022-11-24T05:49:27.317Z,100157.00
2022-11-24T05:51:59.072Z,100154.27
2022-11-24T05:54:30.916Z,100155.36
2022-11-24T05:57:02.724Z,100163.23
2022-11-24T05:59:34.407Z,100163.92
2022-11-24T06:02:06.283Z,100166.55
2022-11-24T06:04:38.282Z,100168.70
2022-11-24T06:07:30.907Z,100167.02
2022-11-24T06:10:02.563Z,100172.98
2022-11-24T06:12:34.287Z,100177.79
2022-11-24T06:15:08.419Z,100186.71
2022-11-24T06:17:40.829Z,100188.67
2022-11-24T06:20:14.010Z,100192.00
2022-11-24T06:22:45.747Z,100192.96
2022-11-24T06:25:19.216Z,100192.77
2022-11-24T06:27:51.017Z,100195.02
2022-11-24T06:30:26.586Z,100200.36
2022-11-24T06:32:58.692Z,100204.67
2022-11-24T06:35:30.372Z,100205.84
2022-11-24T06:38:02.167Z,100213.40
2022-11-24T06:40:33.999Z,100211.73
2022-11-24T06:43:05.769Z,100216.02
2022-11-24T06:45:37.970Z,100221.27
2022-11-24T06:48:10.069Z,100225.05
2022-11-24T06:50:41.869Z,100226.62
2022-11-24T06:53:13.816Z,100229.98
2022-11-24T06:55:46.275Z,100231.50
2022-11-24T06:58:18.059Z,100235.91
2022-11-24T07:00:49.834Z,100237.80
2022-11-24T07:03:22.173Z,100236.52
2022-11-24T07:05:59.021Z,100244.09
2022-11-24T07:08:31.148Z,100245.66
2022-11-24T07:11:08.568Z,100247.73
2022-11-24T07:13:40.367Z,100252.74
2022-11-24T07:16:18.628Z,100254.21
2022-11-24T07:18:52.366Z,100257.69
2022-11-24T07:21:26.165Z,100256.67
2022-11-24T07:23:59.487Z,100256.45
2022-11-24T07:26:31.317Z,100258.20
2022-11-24T07:29:03.188Z,100254.77
2022-11-24T07:31:34.914Z,100261.33
2022-11-24T07:34:06.627Z,100259.98
2022-11-24T07:36:38.250Z,100258.59
2022-11-24T07:39:10.106Z,100259.40
2022-11-24T07:41:41.958Z,100263.43
2022-11-24T07:44:16.396Z,100263.24
2022-11-24T07:46:51.407Z,100269.28
2022-11-24T07:49:23.180Z,100275.14
2022-11-24T07:51:54.778Z,100277.93
2022-11-24T07:54:26.702Z,100277.81
2022-11-24T07:56:58.759Z,100281.66
2022-11-24T07:59:30.587Z,100284.23
2022-11-24T08:02:02.369Z,100287.98
2022-11-24T08:27:00.474Z,100300.20
2022-11-24T09:43:20.305Z,100331.65
2022-11-24T09:46:05.658Z,100340.17
2022-11-24T09:48:41.061Z,100342.25
2022-11-24T09:51:16.104Z,100342.00
2022-11-24T09:53:52.568Z,100342.27
2022-11-24T09:56:27.247Z,100343.15
2022-11-24T09:59:03.879Z,100345.15
2022-11-24T10:01:38.009Z,100344.49
2022-11-24T10:04:19.611Z,100342.15
2022-11-24T10:06:58.871Z,100344.36
2022-11-24T10:09:46.743Z,100339.15
2022-11-24T10:12:31.779Z,100343.14
2022-11-24T10:15:27.553Z,100345.46
2022-11-24T10:18:22.035Z,100346.86
2022-11-24T10:21:03.087Z,100343.52
2022-11-24T10:23:43.804Z,100337.03
2022-11-24T10:26:19.842Z,100337.84
2022-11-24T10:28:57.976Z,100337.10
2022-11-24T10:31:35.287Z,100338.44
2022-11-24T10:34:14.915Z,100339.05
2022-11-24T10:36:53.196Z,100343.88
2022-11-24T10:39:33.683Z,100342.23
2022-11-24T10:42:13.409Z,100346.64
2022-11-24T10:44:45.901Z,100346.77
2022-11-24T10:47:23.017Z,100350.60
2022-11-24T10:50:03.942Z,100349.41
2022-11-24T10:52:48.165Z,100351.55
2022-11-24T10:55:21.691Z,100349.20
2022-11-24T10:57:53.763Z,100348.02
2022-11-24T11:00:36.528Z,100341.39
2022-11-24T11:03:24.264Z,100339.25
2022-11-24T11:06:00.541Z,100339.14
2022-11-24T11:08:33.703Z,100339.03
2022-11-24T11:11:31.439Z,100341.92
2022-11-24T11:14:04.941Z,100343.33
2022-11-24T11:16:39.234Z,100341.00
2022-11-24T11:19:48.507Z,100337.05
2022-11-24T11:22:28.190Z,100338.11
2022-11-24T11:25:19.087Z,100335.91
2022-11-24T11:27:51.043Z,100331.84
2022-11-24T11:36:18.404Z,100332.92
2022-11-24T11:38:50.435Z,100333.33
2022-11-24T11:41:26.916Z,100331.55
2022-11-24T11:44:11.855Z,100331.51
2022-11-24T11:46:44.931Z,100330.36
2022-11-24T11:49:16.993Z,100330.38
2022-11-24T11:52:05.183Z,100335.03
2022-11-24T11:54:55.130Z,100337.48
2022-11-24T11:57:36.005Z,100341.58
2022-11-24T12:00:16.561Z,100346.16
2022-11-24T12:03:09.594Z,100348.91
2022-11-24T12:05:52.214Z,100348.77
2022-11-24T12:09:03.135Z,100348.84
2022-11-24T12:11:45.027Z,100347.15
2022-11-24T12:14:42.262Z,100343.70
2022-11-24T12:17:31.036Z,100342.16
2022-11-24T12:23:11.505Z,100340.05
2022-11-24T12:25:46.599Z,100343.58
2022-11-24T12:28:34.423Z,100341.77
2022-11-24T12:31:11.920Z,100343.42
2022-11-24T12:34:01.809Z,100342.30
2022-11-24T12:36:48.893Z,100343.39
2022-11-24T12:39:28.801Z,100342.80
2022-11-24T12:42:10.611Z,100344.70
2022-11-24T12:44:56.893Z,100346.39
2022-11-24T12:47:35.247Z,100344.63
2022-11-24T12:50:12.897Z,100346.06
2022-11-24T12:52:54.160Z,100349.41
2022-11-24T12:55:32.360Z,100357.70
2022-11-24T12:58:12.974Z,100360.50
2022-11-24T13:00:59.436Z,100364.41
2022-11-24T13:03:42.599Z,100363.56
2022-11-24T13:06:20.365Z,100365.64
2022-11-24T13:11:56.743Z,100369.15
2022-11-24T13:14:37.412Z,100369.88
2022-11-24T13:17:32.880Z,100369.85
2022-11-24T13:20:34.440Z,100371.73
2022-11-24T13:23:21.206Z,100376.54
2022-11-24T13:26:27.600Z,100380.65
2022-11-24T13:29:17.887Z,100384.48
2022-11-24T13:31:56.739Z,100385.15
2022-11-24T13:35:04.676Z,100384.09
2022-11-24T13:37:52.831Z,100382.92
2022-11-24T13:40:59.900Z,100385.67
2022-11-24T13:43:36.872Z,100388.99
2022-11-24T13:46:12.390Z,100389.79
2022-11-24T13:49:01.248Z,100387.25
2022-11-24T13:51:33.133Z,100390.19
2022-11-24T13:54:05.136Z,100390.42
2022-11-24T13:56:36.847Z,100391.53
2022-11-24T13:59:27.040Z,100395.98
2022-11-24T14:02:01.063Z,100397.32
2022-11-24T14:04:33.663Z,100394.55
2022-11-24T14:10:18.123Z,100402.15
2022-11-24T14:13:09.927Z,100408.11
2022-11-24T14:15:41.648Z,100413.56
2022-11-24T14:18:23.743Z,100418.60
2022-11-24T14:20:55.355Z,100417.34
2022-11-24T14:23:27.254Z,100419.52
2022-11-24T14:26:00.883Z,100422.71
2022-11-24T14:28:32.878Z,100422.14
2022-11-24T14:31:20.458Z,100424.52
2022-11-24T14:34:07.868Z,100426.64
2022-11-24T14:36:39.771Z,100427.38
2022-11-24T14:39:15.226Z,100428.58
2022-11-24T14:41:54.328Z,100426.73
2022-11-24T14:44:29.530Z,100424.14
2022-11-24T14:47:06.348Z,100427.63
2022-11-24T14:49:44.109Z,100427.20
2022-11-24T14:52:19.102Z,100428.94
2022-11-24T14:54:52.707Z,100430.13
2022-11-24T14:57:27.767Z,100438.39
2022-11-24T15:00:20.185Z,100436.80
2022-11-24T15:02:55.353Z,100445.10
2022-11-24T15:05:47.625Z,100449.25
2022-11-24T15:08:19.548Z,100458.35
2022-11-24T15:10:59.682Z,100455.19
2022-11-24T15:13:37.113Z,100459.38
2022-11-24T15:16:16.505Z,100452.38
2022-11-24T15:18:50.661Z,100454.35
2022-11-24T15:21:32.901Z,100459.43
2022-11-24T15:24:18.453Z,100461.20
2022-11-24T15:26:50.367Z,100460.80
2022-11-24T15:29:22.407Z,100467.17
2022-11-24T15:33:17.045Z,100467.21
2022-11-24T15:35:49.148Z,100471.77
2022-11-24T15:38:20.975Z,100466.15
2022-11-24T15:40:55.395Z,100468.51
2022-11-24T15:43:32.143Z,100474.27
2022-11-24T15:46:05.130Z,100472.95
2022-11-24T15:48:36.831Z,100474.06
2022-11-24T15:51:12.627Z,100475.10
2022-11-24T15:53:48.098Z,100483.68
2022-11-24T15:56:26.431Z,100486.98
2022-11-24T15:58:58.170Z,100495.37
2022-11-24T16:01:33.748Z,100498.58
2022-11-24T16:04:05.818Z,100498.95
2022-11-24T16:06:37.566Z,100502.23
2022-11-24T16:09:11.454Z,100503.61
2022-11-24T16:11:43.165Z,100507.77
2022-11-24T16:14:14.881Z,100511.59
2022-11-24T16:16:46.754Z,100504.73
2022-11-24T16:19:18.414Z,100508.15
2022-11-24T16:21:51.102Z,100505.38
2022-11-24T16:24:22.758Z,100506.14
2022-11-24T16:26:54.584Z,100512.05
2022-11-24T16:29:26.250Z,100513.86
2022-11-24T16:31:58.692Z,100512.38
2022-11-24T16:34:30.407Z,100525.17
2022-11-24T16:37:02.045Z,100523.36
2022-11-24T16:39:33.749Z,100529.02
2022-11-24T16:42:06.218Z,100530.34
2022-11-24T16:44:38.060Z,100536.41
2022-11-24T16:47:09.958Z,100541.79
2022-11-24T16:49:41.799Z,100543.34
2022-11-24T16:52:13.697Z,100548.45
2022-11-24T16:54:46.403Z,100553.47
2022-11-24T16:57:18.171Z,100555.92
2022-11-24T16:59:49.961Z,100558.77
2022-11-24T17:02:23.285Z,100563.59
2022-11-24T17:04:58.167Z,100563.41
2022-11-24T17:07:29.895Z,100561.89
2022-11-24T17:10:03.669Z,100564.58
2022-11-24T17:13:03.089Z,100564.02
2022-11-24T17:15:45.278Z,100565.59
2022-11-24T17:18:26.570Z,100565.42
2022-11-24T17:21:06.008Z,100568.52
2022-11-24T17:23:41.428Z,100568.88
2022-11-24T17:26:15.175Z,100563.14
2022-11-24T17:28:46.850Z,100567.73
2022-11-24T17:31:26.130Z,100566.34
2022-11-24T17:34:01.187Z,100569.64
2022-11-24T17:36:34.584Z,100574.09
2022-11-24T17:39:08.068Z,100576.73
2022-11-24T17:41:39.938Z,100577.93
2022-11-24T17:44:14.581Z,100574.85
2022-11-24T17:46:48.864Z,100573.26
2022-11-24T17:49:21.272Z,100573.60
2022-11-24T17:51:53.046Z,100577.86
2022-11-24T17:54:45.298Z,100576.36
2022-11-24T17:57:19.508Z,100583.48
2022-11-24T17:59:51.632Z,100581.38
2022-11-24T18:02:23.624Z,100581.86
2022-11-24T18:04:55.370Z,100581.44
2022-11-24T18:07:27.176Z,100580.55
2022-11-24T18:09:59.028Z,100580.61
2022-11-24T18:12:30.800Z,100583.63
2022-11-24T18:15:02.427Z,100582.34
2022-11-24T18:17:34.215Z,100582.76
2022-11-24T18:20:12.955Z,100589.85
2022-11-24T18:23:05.530Z,100589.45
2022-11-24T18:25:37.336Z,100584.66
2022-11-24T18:28:09.406Z,100586.67
2022-11-24T18:30:41.147Z,100585.68
2022-11-24T18:33:12.929Z,100590.85
2022-11-24T18:35:44.696Z,100592.73
2022-11-24T18:38:17.705Z,100597.83
2022-11-24T18:40:55.395Z,100596.52
2022-11-24T18:43:31.247Z,100599.07
2022-11-24T18:46:06.487Z,100598.74
2022-11-24T18:48:39.464Z,100598.61
2022-11-24T18:51:14.660Z,100593.27
2022-11-24T18:53:47.411Z,100596.91
2022-11-24T18:56:19.437Z,100600.45
2022-11-24T18:58:55.331Z,100599.52
2022-11-24T19:01:30.861Z,100601.52
2022-11-24T19:04:04.673Z,100600.44
2022-11-24T19:06:39.720Z,100600.27
2022-11-24T19:09:15.036Z,100605.80
2022-11-24T19:11:47.895Z,100611.68
2022-11-24T19:14:20.567Z,100616.90
2022-11-24T19:16:52.712Z,100617.56
2022-11-24T19:19:24.401Z,100617.85
2022-11-24T19:21:56.310Z,100623.86
2022-11-24T19:24:30.883Z,100628.77
2022-11-24T19:27:02.736Z,100629.18
2022-11-24T19:29:37.866Z,100632.83
2022-11-24T19:32:16.086Z,100635.68
2022-11-24T19:34:47.765Z,100637.65
2022-11-24T19:37:19.484Z,100641.03
2022-11-24T19:39:51.197Z,100638.39
2022-11-24T19:42:22.887Z,100640.33
2022-11-24T19:44:56.629Z,100645.40
2022-11-24T19:47:28.995Z,100643.13
2022-11-24T19:50:00.730Z,100644.83
2022-11-24T19:52:34.505Z,100645.95
2022-11-24T19:55:07.138Z,100653.40
2022-11-24T19:57:38.853Z,100652.23
2022-11-24T20:00:24.014Z,100655.70
2022-11-24T20:02:57.781Z,100653.23
2022-11-24T20:05:29.524Z,100653.92
2022-11-24T20:08:01.214Z,100655.70
2022-11-24T20:10:33.026Z,100652.46
2022-11-24T20:13:04.674Z,100651.42
2022-11-24T20:15:37.420Z,100650.64
2022-11-24T20:18:09.150Z,100655.94
2022-11-24T20:20:40.835Z,100653.96
2022-11-24T20:23:12.571Z,100658.27
2022-11-24T20:25:44.260Z,100661.20
2022-11-24T20:28:15.924Z,100668.17
2022-11-24T20:30:47.611Z,100671.54
2022-11-24T20:33:19.216Z,100670.33
2022-11-24T20:35:50.815Z,100674.39
2022-11-24T20:38:22.505Z,100672.11
2022-11-24T20:40:54.533Z,100676.92
2022-11-24T20:43:26.209Z,100677.81
2022-11-24T20:45:58.051Z,100682.71
2022-11-24T20:48:29.696Z,100685.98
2022-11-24T20:51:06.946Z,100684.77
2022-11-24T20:53:39.122Z,100685.35
2022-11-24T20:56:13.852Z,100684.98
2022-11-24T20:58:46.601Z,100690.61
2022-11-24T21:01:28.408Z,100683.44
2022-11-24T21:04:02.061Z,100684.30
2022-11-24T21:06:33.753Z,100682.31
2022-11-24T21:09:06.363Z,100687.60
2022-11-24T21:11:40.496Z,100688.05
2022-11-24T21:14:14.238Z,100685.39
2022-11-24T21:16:46.004Z,100692.12
2022-11-24T21:19:18.926Z,100701.97
2022-11-24T21:21:50.946Z,100703.45
2022-11-24T21:24:22.862Z,100701.77
2022-11-24T21:26:54.660Z,100700.89
2022-11-24T21:29:27.676Z,100698.30
2022-11-24T21:31:59.435Z,100705.14
2022-11-24T21:34:31.376Z,100703.65
2022-11-24T21:37:03.052Z,100701.17
2022-11-24T21:39:36.452Z,100701.91
2022-11-24T21:42:09.095Z,100701.61
2022-11-24T21:44:40.738Z,100701.80
2022-11-24T21:47:12.387Z,100701.45
2022-11-24T21:49:44.031Z,100703.48
2022-11-24T21:52:15.705Z,100704.93
2022-11-24T21:54:49.103Z,100704.27
2022-11-24T21:57:23.213Z,100706.58
2022-11-24T22:00:26.584Z,100706.94
2022-11-24T22:02:58.362Z,100703.23
2022-11-24T22:05:30.033Z,100695.98
2022-11-24T22:08:01.721Z,100698.66
2022-11-24T22:10:33.358Z,100706.15
2022-11-24T22:13:05.075Z,100702.55
2022-11-24T22:15:46.175Z,100701.70
2022-11-24T22:18:17.846Z,100702.48
2022-11-24T22:20:57.359Z,100701.89
2022-11-24T22:23:34.062Z,100708.00
2022-11-24T22:26:08.879Z,100708.41
2022-11-24T22:28:43.887Z,100709.82
2022-11-24T22:31:17.731Z,100713.80
2022-11-24T22:33:49.927Z,100714.48
2022-11-24T22:36:22.959Z,100710.50
2022-11-24T22:39:03.228Z,100713.65
2022-11-24T22:41:36.695Z,100717.40
2022-11-24T22:44:10.106Z,100718.56
2022-11-24T22:46:41.716Z,100722.45
2022-11-24T22:49:13.539Z,100721.08
2022-11-24T22:51:45.579Z,100719.59
2022-11-24T22:54:17.252Z,100721.14
2022-11-24T22:56:48.950Z,100723.45
2022-11-24T22:59:36.835Z,100725.02
2022-11-24T23:02:08.980Z,100730.61
2022-11-24T23:04:40.651Z,100732.45
2022-11-24T23:07:12.339Z,100732.19
2022-11-24T23:09:44.023Z,100734.17
2022-11-24T23:12:15.714Z,100735.52
2022-11-24T23:14:47.489Z,100734.38
2022-11-24T23:17:19.117Z,100730.67
2022-11-24T23:19:53.145Z,100733.02
2022-11-24T23:22:24.828Z,100734.73
2022-11-24T23:24:56.459Z,100737.23
2022-11-24T23:27:28.087Z,100733.84
2022-11-24T23:29:59.790Z,100731.96
2022-11-24T23:32:31.415Z,100726.33
2022-11-24T23:35:03.062Z,100728.06
2022-11-24T23:37:59.859Z,100735.44
2022-11-24T23:40:31.119Z,100742.45
2022-11-24T23:43:02.799Z,100751.96
2022-11-24T23:45:34.548Z,100757.73
2022-11-24T23:48:08.609Z,100753.79
2022-11-24T23:50:40.237Z,100758.11
2022-11-24T23:53:12.094Z,100756.07
2022-11-24T23:55:43.747Z,100754.02
2022-11-24T23:58:15.328Z,100754.10
